createdAt,value
2022-11-30T00:01:22.117Z,10.74
2022-11-30T00:03:49.064Z,10.39
2022-11-30T00:06:22.697Z,10.93
2022-11-30T00:08:54.053Z,10.86
2022-11-30T00:11:22.513Z,10.40
2022-11-30T00:13:49.108Z,10.63
2022-11-30T00:16:15.834Z,10.32
2022-11-30T00:18:42.287Z,10.29
2022-11-30T00:21:11.846Z,10.88
2022-11-30T00:23:40.225Z,10.58
2022-11-30T00:26:09.552Z,10.28
2022-11-30T00:28:37.536Z,10.63
2022-11-30T00:31:10.819Z,10.69
2022-11-30T00:33:38.267Z,10.49
2022-11-30T00:36:12.142Z,10.23
2022-11-30T00:38:38.992Z,10.80
2022-11-30T00:41:06.116Z,10.78
2022-11-30T00:43:32.533Z,10.47
2022-11-30T00:45:59.391Z,10.30
2022-11-30T00:48:25.810Z,10.74
2022-11-30T00:50:52.665Z,10.73
2022-11-30T00:53:19.268Z,10.71
2022-11-30T00:55:48.017Z,10.46
2022-11-30T00:58:14.902Z,10.80
2022-11-30T01:00:41.584Z,10.79
2022-11-30T01:03:08.226Z,10.68
2022-11-30T01:05:34.920Z,10.96
2022-11-30T01:08:02.350Z,10.35
2022-11-30T01:10:29.055Z,10.99
2022-11-30T01:12:55.817Z,10.69
2022-11-30T01:15:22.664Z,10.62
2022-11-30T01:17:49.046Z,10.20
2022-11-30T01:20:15.481Z,10.09
2022-11-30T01:22:41.932Z,10.20
2022-11-30T01:25:08.879Z,10.71
2022-11-30T01:27:35.192Z,10.73
2022-11-30T01:30:01.689Z,10.77
2022-11-30T01:32:28.141Z,10.90
2022-11-30T01:34:54.614Z,10.37
2022-11-30T01:37:20.956Z,10.84
2022-11-30T01:39:47.303Z,10.32
2022-11-30T01:42:16.847Z,10.77
2022-11-30T01:44:55.122Z,10.93
2022-11-30T01:47:27.977Z,10.86
2022-11-30T01:50:04.276Z,10.26
2022-11-30T01:52:41.183Z,10.50
2022-11-30T01:55:22.147Z,10.82
2022-11-30T01:57:56.116Z,10.63
2022-11-30T02:00:23.816Z,10.39
2022-11-30T02:02:58.744Z,11.04
2022-11-30T02:05:26.679Z,10.99
2022-11-30T02:07:54.041Z,10.93
2022-11-30T02:10:28.091Z,10.69
2022-11-30T02:13:15.884Z,11.00
2022-11-30T02:16:01.033Z,11.04
2022-11-30T02:18:38.704Z,10.78
2022-11-30T02:21:23.532Z,10.43
2022-11-30T02:24:11.810Z,10.92
2022-11-30T02:27:02.945Z,11.02
2022-11-30T02:30:05.437Z,10.89
2022-11-30T02:32:38.115Z,10.68
2022-11-30T02:35:07.061Z,10.93
2022-11-30T02:37:35.200Z,10.55
2022-11-30T02:40:01.592Z,10.13
2022-11-30T02:42:27.918Z,10.34
2022-11-30T02:44:54.678Z,10.42
2022-11-30T02:47:40.398Z,10.89
2022-11-30T02:50:18.654Z,10.86
2022-11-30T02:52:45.872Z,10.83
2022-11-30T02:55:16.982Z,10.34
2022-11-30T02:57:43.452Z,10.87
2022-11-30T03:00:12.231Z,10.93
2022-11-30T03:02:39.927Z,10.47
2022-11-30T03:05:07.202Z,10.95
2022-11-30T03:07:33.588Z,10.12
2022-11-30T03:10:00.431Z,10.69
2022-11-30T03:12:26.869Z,10.18
2022-11-30T03:14:53.466Z,10.12
2022-11-30T03:17:19.830Z,10.27
2022-11-30T03:19:46.150Z,10.11
2022-11-30T03:22:12.558Z,10.08
2022-11-30T03:24:38.963Z,10.45
2022-11-30T03:27:05.372Z,10.93
2022-11-30T03:29:31.699Z,10.35
2022-11-30T03:31:58.114Z,10.30
2022-11-30T03:34:26.468Z,10.33
2022-11-30T03:36:53.276Z,10.19
2022-11-30T03:39:19.688Z,10.28
2022-11-30T03:41:46.145Z,10.57
2022-11-30T03:44:12.657Z,10.49
2022-11-30T03:46:39.297Z,10.27
2022-11-30T03:49:05.826Z,10.49
2022-11-30T03:51:32.226Z,10.50
2022-11-30T03:53:58.857Z,10.66
2022-11-30T03:56:25.507Z,10.81
2022-11-30T03:58:51.894Z,10.38
2022-11-30T04:01:23.648Z,11.11
2022-11-30T04:03:51.774Z,11.04
2022-11-30T04:06:19.522Z,10.55
2022-11-30T04:08:46.392Z,10.77
2022-11-30T04:11:14.193Z,10.46
2022-11-30T04:13:41.346Z,10.38
2022-11-30T04:16:08.048Z,10.31
2022-11-30T04:18:36.391Z,9.81
2022-11-30T04:21:03.126Z,10.25
2022-11-30T04:23:31.985Z,10.79
2022-11-30T04:25:58.873Z,10.10
2022-11-30T04:28:25.378Z,10.79
2022-11-30T04:30:53.827Z,10.82
2022-11-30T04:33:20.368Z,10.24
2022-11-30T04:35:50.138Z,10.81
2022-11-30T04:38:16.541Z,10.07
2022-11-30T04:40:44.014Z,10.36
2022-11-30T04:43:11.878Z,10.21
2022-11-30T04:45:38.936Z,10.16
2022-11-30T04:48:06.513Z,10.73
2022-11-30T04:50:33.379Z,10.22
2022-11-30T04:52:59.837Z,10.75
2022-11-30T04:55:26.783Z,10.74
2022-11-30T04:57:53.631Z,10.41
2022-11-30T05:00:20.344Z,10.61
2022-11-30T05:02:52.420Z,10.14
2022-11-30T05:05:19.624Z,10.16
2022-11-30T05:07:49.708Z,10.39
2022-11-30T05:10:16.506Z,10.49
2022-11-30T05:12:43.031Z,10.41
2022-11-30T05:15:09.973Z,10.06
2022-11-30T05:17:36.404Z,10.41
2022-11-30T05:20:03.198Z,10.16
2022-11-30T05:22:29.610Z,9.95
2022-11-30T05:24:55.966Z,9.87
2022-11-30T05:27:22.813Z,10.21
2022-11-30T05:29:49.343Z,10.61
2022-11-30T05:32:15.712Z,10.16
2022-11-30T05:34:50.631Z,10.58
2022-11-30T05:37:18.169Z,10.39
2022-11-30T05:39:44.538Z,10.16
2022-11-30T05:42:13.797Z,9.92
2022-11-30T05:44:40.184Z,9.62
2022-11-30T05:47:06.594Z,10.16
2022-11-30T05:49:33.077Z,10.28
2022-11-30T05:51:59.571Z,10.23
2022-11-30T05:54:25.995Z,10.40
2022-11-30T05:56:55.026Z,9.72
2022-11-30T05:59:22.514Z,10.59
2022-11-30T06:01:49.091Z,10.21
2022-11-30T06:04:15.595Z,9.76
2022-11-30T06:06:41.970Z,10.36
2022-11-30T06:09:08.334Z,10.14
2022-11-30T06:11:34.686Z,10.16
2022-11-30T06:14:00.991Z,10.37
2022-11-30T06:16:27.330Z,10.24
2022-11-30T06:18:53.697Z,10.27
2022-11-30T06:21:24.434Z,10.44
2022-11-30T06:23:52.182Z,10.37
2022-11-30T06:26:18.559Z,10.13
2022-11-30T06:28:48.217Z,10.35
2022-11-30T06:31:15.714Z,10.40
2022-11-30T06:33:42.132Z,10.32
2022-11-30T06:36:09.193Z,10.42
2022-11-30T06:38:35.532Z,10.18
2022-11-30T06:41:07.200Z,10.29
2022-11-30T06:43:35.533Z,9.63
2022-11-30T06:46:03.560Z,10.11
2022-11-30T06:48:30.146Z,9.87
2022-11-30T06:50:56.595Z,10.09
2022-11-30T06:53:22.953Z,9.61
2022-11-30T06:55:49.391Z,8.91
2022-11-30T06:58:15.872Z,9.56
2022-11-30T07:00:42.805Z,9.13
2022-11-30T07:03:11.302Z,10.06
2022-11-30T07:05:43.959Z,10.10
2022-11-30T07:08:11.566Z,9.24
2022-11-30T07:10:46.232Z,9.85
2022-11-30T07:13:14.704Z,10.04
2022-11-30T07:15:42.133Z,9.80
2022-11-30T07:18:09.450Z,9.25
2022-11-30T07:20:36.936Z,9.69
2022-11-30T07:23:22.594Z,9.68
2022-11-30T07:26:06.216Z,9.16
2022-11-30T07:28:33.951Z,9.79
2022-11-30T07:31:00.288Z,9.55
2022-11-30T07:33:26.693Z,8.83
2022-11-30T07:35:54.012Z,9.41
2022-11-30T07:38:20.338Z,9.08
2022-11-30T07:40:46.645Z,9.32
2022-11-30T07:43:12.975Z,9.10
2022-11-30T07:45:39.320Z,8.81
2022-11-30T07:48:05.763Z,8.39
2022-11-30T07:50:32.110Z,8.42
2022-11-30T07:52:58.581Z,8.39
2022-11-30T07:55:25.042Z,9.14
2022-11-30T07:57:51.392Z,7.92
2022-11-30T08:00:17.859Z,9.06
2022-11-30T08:02:44.200Z,9.05
2022-11-30T08:05:12.118Z,8.49
2022-11-30T08:07:38.633Z,9.25
2022-11-30T08:10:05.859Z,9.19
2022-11-30T08:12:32.434Z,9.34
2022-11-30T08:15:19.215Z,9.40
2022-11-30T08:17:45.520Z,8.74
2022-11-30T08:20:12.106Z,8.66
2022-11-30T08:22:38.482Z,9.29
2022-11-30T08:25:05.482Z,9.18
2022-11-30T08:27:31.793Z,9.26
2022-11-30T08:29:58.110Z,9.12
2022-11-30T08:32:24.417Z,9.08
2022-11-30T08:34:50.933Z,8.96
2022-11-30T08:37:17.423Z,9.20
2022-11-30T08:39:43.808Z,9.19
2022-11-30T08:42:10.124Z,8.69
2022-11-30T08:44:36.482Z,8.52
2022-11-30T08:47:03.035Z,9.08
2022-11-30T08:49:30.853Z,9.18
2022-11-30T08:54:46.205Z,9.40
2022-11-30T08:57:14.273Z,9.09
2022-11-30T08:59:40.683Z,9.10
2022-11-30T09:02:13.266Z,9.26
2022-11-30T09:04:39.682Z,8.80
2022-11-30T09:07:06.013Z,8.93
2022-11-30T09:09:32.625Z,8.67
2022-11-30T09:11:58.985Z,9.34
2022-11-30T09:14:25.378Z,8.12
2022-11-30T09:16:53.418Z,9.18
2022-11-30T09:19:20.253Z,8.92
2022-11-30T09:21:51.568Z,9.20
2022-11-30T09:24:18.999Z,9.55
2022-11-30T09:26:45.338Z,9.41
2022-11-30T09:29:11.755Z,9.49
2022-11-30T09:31:38.088Z,9.49
2022-11-30T09:34:04.530Z,8.82
2022-11-30T09:36:34.577Z,9.52
2022-11-30T09:39:01.073Z,8.69
2022-11-30T09:41:54.352Z,9.62
2022-11-30T09:44:36.478Z,9.32
2022-11-30T09:47:15.080Z,8.71
2022-11-30T09:49:47.171Z,8.90
2022-11-30T09:52:18.613Z,9.22
2022-11-30T09:54:47.853Z,9.05
2022-11-30T09:57:17.402Z,9.96
2022-11-30T09:59:58.469Z,9.65
2022-11-30T10:02:31.071Z,9.68
2022-11-30T10:04:58.093Z,9.75
2022-11-30T10:07:44.959Z,10.02
2022-11-30T10:10:37.659Z,10.09
2022-11-30T10:13:23.266Z,10.01
2022-11-30T10:16:26.667Z,10.02
2022-11-30T10:19:19.633Z,10.04
2022-11-30T10:21:59.192Z,10.05
2022-11-30T10:24:40.519Z,10.00
2022-11-30T10:27:17.074Z,9.66
2022-11-30T10:29:44.204Z,10.07
2022-11-30T10:32:19.006Z,9.97
2022-11-30T10:34:51.769Z,9.77
2022-11-30T10:37:35.916Z,9.91
2022-11-30T10:40:18.022Z,10.09
2022-11-30T10:42:57.805Z,9.96
2022-11-30T10:45:27.180Z,10.19
2022-11-30T10:48:03.385Z,10.29
2022-11-30T10:50:31.318Z,10.32
2022-11-30T10:53:00.103Z,10.23
2022-11-30T10:55:30.086Z,10.12
2022-11-30T10:58:03.901Z,10.11
2022-11-30T11:00:30.236Z,10.02
2022-11-30T11:02:56.722Z,10.29
2022-11-30T11:05:29.693Z,10.45
2022-11-30T11:08:25.328Z,10.45
2022-11-30T11:10:51.753Z,10.67
2022-11-30T11:13:40.521Z,10.71
2022-11-30T11:16:09.978Z,10.79
2022-11-30T11:18:51.189Z,10.55
2022-11-30T11:21:19.694Z,10.78
2022-11-30T11:23:47.617Z,10.70
2022-11-30T11:26:19.855Z,10.83
2022-11-30T11:28:51.791Z,10.77
2022-11-30T11:31:48.974Z,10.86
2022-11-30T11:34:34.363Z,10.86
2022-11-30T11:37:21.945Z,10.75
2022-11-30T11:40:00.523Z,10.95
2022-11-30T11:42:30.648Z,10.88
2022-11-30T11:44:59.533Z,10.91
2022-11-30T11:47:32.662Z,10.53
2022-11-30T11:50:06.693Z,10.80
2022-11-30T11:52:33.072Z,10.73
2022-11-30T11:55:03.332Z,10.79
2022-11-30T11:57:47.924Z,10.87
2022-11-30T12:00:16.398Z,10.95
2022-11-30T12:03:07.704Z,10.88
2022-11-30T12:05:42.813Z,10.80
2022-11-30T12:08:27.450Z,10.82
2022-11-30T12:11:16.312Z,10.80
2022-11-30T12:13:44.337Z,11.01
2022-11-30T12:16:42.684Z,10.91
2022-11-30T12:19:21.283Z,11.02
2022-11-30T12:22:03.333Z,11.12
2022-11-30T12:24:29.670Z,11.14
2022-11-30T12:27:02.978Z,11.02
2022-11-30T12:29:48.419Z,11.17
2022-11-30T12:32:50.283Z,11.25
2022-11-30T12:35:45.323Z,11.28
2022-11-30T12:38:38.468Z,11.17
2022-11-30T12:41:29.813Z,11.32
2022-11-30T12:44:04.644Z,11.05
2022-11-30T12:46:39.348Z,11.50
2022-11-30T12:49:21.395Z,11.23
2022-11-30T12:51:53.889Z,11.42
2022-11-30T12:54:41.596Z,11.48
2022-11-30T12:57:20.900Z,11.50
2022-11-30T13:00:05.836Z,11.58
2022-11-30T13:02:59.491Z,11.36
2022-11-30T13:05:53.968Z,11.45
2022-11-30T13:08:27.607Z,11.47
2022-11-30T13:11:04.514Z,11.26
2022-11-30T13:13:34.105Z,10.82
2022-11-30T13:16:07.878Z,11.38
2022-11-30T13:18:36.147Z,11.09
2022-11-30T13:21:11.674Z,11.19
2022-11-30T13:23:52.785Z,11.32
2022-11-30T13:26:42.980Z,11.13
2022-11-30T13:29:43.741Z,11.17
2022-11-30T13:32:55.211Z,11.34
2022-11-30T13:35:28.910Z,11.45
2022-11-30T13:38:40.272Z,11.39
2022-11-30T13:41:08.815Z,11.41
2022-11-30T13:43:47.939Z,11.29
2022-11-30T13:46:19.489Z,11.27
2022-11-30T13:48:46.752Z,11.30
2022-11-30T13:51:33.397Z,11.20
2022-11-30T13:54:38.803Z,10.60
2022-11-30T13:57:27.114Z,11.36
2022-11-30T13:59:58.567Z,11.14
2022-11-30T14:02:31.510Z,11.35
2022-11-30T14:05:16.463Z,11.24
2022-11-30T14:07:51.977Z,11.26
2022-11-30T14:10:35.196Z,11.15
2022-11-30T14:13:04.458Z,11.24
2022-11-30T14:15:40.720Z,11.21
2022-11-30T14:18:10.084Z,11.12
2022-11-30T14:20:48.828Z,11.21
2022-11-30T14:23:20.786Z,11.31
2022-11-30T14:25:51.803Z,10.97
2022-11-30T14:28:22.911Z,11.06
2022-11-30T14:30:49.397Z,11.13
2022-11-30T14:33:27.063Z,11.21
2022-11-30T14:35:57.993Z,10.86
2022-11-30T14:38:27.519Z,10.86
2022-11-30T14:40:54.692Z,11.17
2022-11-30T14:43:21.329Z,11.12
2022-11-30T14:46:08.149Z,10.85
2022-11-30T14:48:37.936Z,10.98
2022-11-30T14:51:04.528Z,10.90
2022-11-30T14:54:00.088Z,10.90
2022-11-30T14:56:36.846Z,10.82
2022-11-30T14:59:27.604Z,11.14
2022-11-30T15:01:59.862Z,11.12
2022-11-30T15:04:27.654Z,10.70
2022-11-30T15:06:55.849Z,10.89
2022-11-30T15:09:32.482Z,11.09
2022-11-30T15:11:59.873Z,10.92
2022-11-30T15:14:26.443Z,10.91
2022-11-30T15:16:59.648Z,10.99
2022-11-30T15:19:29.497Z,10.70
2022-11-30T15:21:56.895Z,10.74
2022-11-30T15:24:23.864Z,10.80
2022-11-30T15:27:04.341Z,10.75
2022-11-30T15:29:43.111Z,10.87
2022-11-30T15:32:17.685Z,10.94
2022-11-30T15:34:56.781Z,10.74
2022-11-30T15:37:37.895Z,10.90
2022-11-30T15:40:07.821Z,10.87
2022-11-30T15:42:43.817Z,10.98
2022-11-30T15:45:23.703Z,10.89
2022-11-30T15:47:51.609Z,10.78
2022-11-30T15:50:39.474Z,10.90
2022-11-30T15:53:54.197Z,10.85
2022-11-30T15:56:26.085Z,10.69
2022-11-30T15:59:14.088Z,10.86
2022-11-30T16:02:08.890Z,10.63
2022-11-30T16:04:53.848Z,10.84
2022-11-30T16:07:20.277Z,10.87
2022-11-30T16:09:46.946Z,10.78
2022-11-30T16:12:28.351Z,10.67
2022-11-30T16:14:54.782Z,10.43
2022-11-30T16:17:21.574Z,10.60
2022-11-30T16:19:48.150Z,10.17
2022-11-30T16:22:15.955Z,10.60
2022-11-30T16:24:42.766Z,10.77
2022-11-30T16:27:20.060Z,10.72
2022-11-30T16:29:51.902Z,10.42
2022-11-30T16:32:19.467Z,10.43
2022-11-30T16:34:47.720Z,10.76
2022-11-30T16:37:14.722Z,10.20
2022-11-30T16:39:41.119Z,10.10
2022-11-30T16:42:11.827Z,10.15
2022-11-30T16:44:38.339Z,10.45
2022-11-30T16:47:04.673Z,10.19
2022-11-30T16:49:31.039Z,9.95
2022-11-30T16:51:57.386Z,10.69
2022-11-30T16:54:23.736Z,9.99
2022-11-30T16:56:50.063Z,10.32
2022-11-30T16:59:17.069Z,9.98
2022-11-30T17:01:47.266Z,10.04
2022-11-30T17:04:26.309Z,10.18
2022-11-30T17:06:58.793Z,10.73
2022-11-30T17:09:29.780Z,10.30
2022-11-30T17:11:56.334Z,10.06
2022-11-30T17:14:23.762Z,10.01
2022-11-30T17:16:50.518Z,10.13
2022-11-30T17:19:17.098Z,10.10
2022-11-30T17:21:44.509Z,10.68
2022-11-30T17:24:11.912Z,10.36
2022-11-30T17:26:38.344Z,9.92
2022-11-30T17:29:04.694Z,10.74
2022-11-30T17:31:31.263Z,10.08
2022-11-30T17:33:57.940Z,10.55
2022-11-30T17:36:24.422Z,10.03
2022-11-30T17:38:51.036Z,10.18
2022-11-30T17:41:19.915Z,10.72
2022-11-30T17:43:47.881Z,10.29
2022-11-30T17:46:17.243Z,10.13
2022-11-30T17:48:43.934Z,10.77
2022-11-30T17:51:12.758Z,10.37
2022-11-30T17:53:40.456Z,10.68
2022-11-30T17:56:09.232Z,10.53
2022-11-30T17:58:43.397Z,10.14
2022-11-30T18:01:23.173Z,10.82
2022-11-30T18:03:50.316Z,10.75
2022-11-30T18:06:17.452Z,10.69
2022-11-30T18:08:44.354Z,10.69
2022-11-30T18:11:13.538Z,10.70
2022-11-30T18:13:40.619Z,9.61
2022-11-30T18:16:15.468Z,10.72
2022-11-30T18:18:47.423Z,10.31
2022-11-30T18:21:18.037Z,10.10
2022-11-30T18:23:44.579Z,10.29
2022-11-30T18:26:17.311Z,10.83
2022-11-30T18:28:44.442Z,9.93
2022-11-30T18:31:11.059Z,10.03
2022-11-30T18:33:38.275Z,10.15
2022-11-30T18:36:09.014Z,10.29
2022-11-30T18:38:38.475Z,10.79
2022-11-30T18:41:05.945Z,10.61
2022-11-30T18:43:33.406Z,10.26
2022-11-30T18:46:08.460Z,10.65
2022-11-30T18:48:36.039Z,10.66
2022-11-30T18:51:28.089Z,10.55
2022-11-30T18:54:08.541Z,10.45
2022-11-30T18:56:37.189Z,10.65
2022-11-30T18:59:06.751Z,10.57
2022-11-30T19:01:33.586Z,9.82
2022-11-30T19:04:02.657Z,10.55
2022-11-30T19:06:29.947Z,10.69
2022-11-30T19:08:57.103Z,10.65
2022-11-30T19:11:24.158Z,10.51
2022-11-30T19:13:54.890Z,10.44
2022-11-30T19:16:21.618Z,10.65
2022-11-30T19:18:48.656Z,10.37
2022-11-30T19:21:17.534Z,10.52
2022-11-30T19:23:44.327Z,10.55
2022-11-30T19:26:11.189Z,10.63
2022-11-30T19:28:38.593Z,10.16
2022-11-30T19:31:10.985Z,10.67
2022-11-30T19:33:39.277Z,10.37
2022-11-30T19:36:08.395Z,9.96
2022-11-30T19:38:34.846Z,10.12
2022-11-30T19:41:06.145Z,9.90
2022-11-30T19:43:32.520Z,10.41
2022-11-30T19:46:11.518Z,10.67
2022-11-30T19:48:37.917Z,10.20
2022-11-30T19:51:06.776Z,10.64
2022-11-30T19:53:33.642Z,10.57
2022-11-30T19:56:04.633Z,10.02
2022-11-30T19:58:31.735Z,9.88
2022-11-30T20:01:05.715Z,10.40
2022-11-30T20:03:35.725Z,10.18
2022-11-30T20:06:02.895Z,9.64
2022-11-30T20:08:29.377Z,10.31
2022-11-30T20:10:55.747Z,10.44
2022-11-30T20:13:22.068Z,9.97
2022-11-30T20:15:48.664Z,9.86
2022-11-30T20:18:15.082Z,9.85
2022-11-30T20:20:41.420Z,9.96
2022-11-30T20:23:07.766Z,9.81
2022-11-30T20:25:34.371Z,10.22
2022-11-30T20:28:01.049Z,9.95
2022-11-30T20:30:28.127Z,10.21
2022-11-30T20:32:54.536Z,10.55
2022-11-30T20:35:21.042Z,10.35
2022-11-30T20:37:47.485Z,10.33
2022-11-30T20:40:13.915Z,10.49
2022-11-30T20:42:40.235Z,10.23
2022-11-30T20:45:07.009Z,9.87
2022-11-30T20:47:36.579Z,9.79
2022-11-30T20:50:04.761Z,10.44
2022-11-30T20:52:31.113Z,10.42
2022-11-30T20:54:57.480Z,10.37
2022-11-30T20:57:23.784Z,10.09
2022-11-30T20:59:50.346Z,10.40
2022-11-30T21:02:16.730Z,10.42
2022-11-30T21:04:43.273Z,10.27
2022-11-30T21:07:09.623Z,10.42
2022-11-30T21:09:35.956Z,10.43
2022-11-30T21:12:02.257Z,10.33
2022-11-30T21:14:28.788Z,10.42
2022-11-30T21:16:55.185Z,10.19
2022-11-30T21:19:21.696Z,10.31
2022-11-30T21:21:48.056Z,10.19
2022-11-30T21:24:14.410Z,10.06
2022-11-30T21:26:42.851Z,10.19
2022-11-30T21:29:15.298Z,10.03
2022-11-30T21:31:42.287Z,10.33
2022-11-30T21:34:08.977Z,10.15
2022-11-30T21:36:35.405Z,9.70
2022-11-30T21:39:06.131Z,9.91
2022-11-30T21:41:37.988Z,9.94
2022-11-30T21:44:05.748Z,10.13
2022-11-30T21:46:32.588Z,10.22
2022-11-30T21:48:58.984Z,9.69
2022-11-30T21:51:28.826Z,10.26
2022-11-30T21:53:57.796Z,10.04
2022-11-30T21:56:29.925Z,9.69
2022-11-30T21:58:57.383Z,10.21
2022-11-30T22:01:30.725Z,10.38
2022-11-30T22:03:58.918Z,10.32
2022-11-30T22:06:27.226Z,10.30
2022-11-30T22:08:56.229Z,9.95
2022-11-30T22:11:23.166Z,9.96
2022-11-30T22:13:51.686Z,10.20
2022-11-30T22:16:19.180Z,10.39
2022-11-30T22:18:46.110Z,9.98
2022-11-30T22:21:18.224Z,10.28
2022-11-30T22:23:46.738Z,10.05
2022-11-30T22:26:16.882Z,10.01
2022-11-30T22:28:45.661Z,9.94
2022-11-30T22:31:14.026Z,10.22
2022-11-30T22:33:42.640Z,10.07
2022-11-30T22:36:13.613Z,10.23
2022-11-30T22:38:40.362Z,9.64
2022-11-30T22:41:08.531Z,9.71
2022-11-30T22:43:35.427Z,9.51
2022-11-30T22:46:10.031Z,9.89
2022-11-30T22:48:37.363Z,9.66
2022-11-30T22:51:04.547Z,10.04
2022-11-30T22:53:31.038Z,10.10
2022-11-30T22:56:04.807Z,9.99
2022-11-30T22:58:31.342Z,9.86
2022-11-30T23:00:58.828Z,9.87
2022-11-30T23:03:28.371Z,9.31
2022-11-30T23:05:55.159Z,10.05
2022-11-30T23:08:21.599Z,9.92
2022-11-30T23:10:48.235Z,9.94
2022-11-30T23:13:14.591Z,9.92
2022-11-30T23:15:41.661Z,9.59
2022-11-30T23:18:08.136Z,9.62
2022-11-30T23:20:35.867Z,10.21
2022-11-30T23:23:02.199Z,10.01
2022-11-30T23:25:28.587Z,9.44
2022-11-30T23:27:55.053Z,10.08
2022-11-30T23:30:21.379Z,9.99
2022-11-30T23:32:47.867Z,10.07
2022-11-30T23:35:14.270Z,10.02
2022-11-30T23:37:40.688Z,10.04
2022-11-30T23:40:07.854Z,9.77
2022-11-30T23:42:34.245Z,10.12
2022-11-30T23:45:01.025Z,10.11
2022-11-30T23:47:27.588Z,10.04
2022-11-30T23:49:53.926Z,9.72
2022-11-30T23:52:20.306Z,9.38
2022-11-30T23:54:46.754Z,9.91
2022-11-30T23:57:13.276Z,9.90
2022-11-30T23:59:39.578Z,9.75
